createdAt,value
2024-01-25T00:00:32.763Z,13.73
2024-01-25T00:03:22.563Z,12.73
2024-01-25T00:05:52.783Z,3.60
2024-01-25T00:08:24.058Z,4.80
2024-01-25T00:10:54.256Z,2.67
2024-01-25T00:13:24.047Z,7.53
2024-01-25T00:15:55.507Z,3.73
2024-01-25T00:20:55.080Z,5.18
2024-01-25T00:23:26.326Z,2.35
2024-01-25T00:25:59.614Z,3.58
2024-01-25T00:28:29.819Z,6.97
2024-01-25T00:31:00.211Z,10.48
2024-01-25T00:33:30.179Z,3.92
2024-01-25T00:36:01.091Z,8.35
2024-01-25T00:38:32.962Z,6.63
2024-01-25T00:41:03.582Z,4.28
2024-01-25T00:43:33.958Z,6.30
2024-01-25T00:46:04.778Z,3.47
2024-01-25T00:48:35.281Z,2.38
2024-01-25T00:51:09.832Z,7.38
2024-01-25T00:53:42.018Z,6.70
2024-01-25T00:56:13.821Z,4.78
2024-01-25T00:58:45.252Z,4.03
2024-01-25T01:01:16.194Z,5.78
2024-01-25T01:03:46.658Z,3.17
2024-01-25T01:06:17.503Z,5.47
2024-01-25T01:08:49.430Z,8.10
2024-01-25T01:11:19.620Z,3.22
2024-01-25T01:13:49.350Z,4.40
2024-01-25T01:16:21.466Z,9.00
2024-01-25T01:18:51.788Z,11.43
2024-01-25T01:21:23.303Z,11.25
2024-01-25T01:23:54.525Z,13.25
2024-01-25T01:26:24.753Z,6.05
2024-01-25T01:28:54.513Z,25.98
2024-01-25T01:31:24.989Z,11.07
2024-01-25T01:33:55.289Z,11.15
2024-01-25T01:36:25.543Z,18.92
2024-01-25T01:38:56.824Z,21.50
2024-01-25T01:41:26.948Z,18.63
2024-01-25T01:43:56.990Z,24.38
2024-01-25T01:46:36.004Z,11.35
2024-01-25T01:49:06.867Z,19.02
2024-01-25T01:51:37.937Z,15.43
2024-01-25T01:54:10.199Z,25.33
2024-01-25T01:56:41.555Z,13.48
2024-01-25T01:59:13.147Z,10.77
2024-01-25T02:01:43.524Z,12.52
2024-01-25T02:04:13.684Z,24.35
2024-01-25T02:06:47.469Z,25.55
2024-01-25T02:09:18.845Z,22.23
2024-01-25T02:11:48.982Z,28.98
2024-01-25T02:14:19.390Z,9.68
2024-01-25T02:16:49.711Z,18.20
2024-01-25T02:19:19.960Z,13.45
2024-01-25T02:21:50.892Z,11.77
2024-01-25T02:24:22.232Z,6.65
2024-01-25T02:26:52.644Z,9.35
2024-01-25T02:29:23.001Z,13.27
2024-01-25T02:31:53.253Z,22.27
2024-01-25T02:34:23.126Z,11.57
2024-01-25T02:36:53.414Z,6.28
2024-01-25T02:39:24.713Z,10.88
2024-01-25T02:41:54.894Z,12.23
2024-01-25T02:44:24.659Z,12.18
2024-01-25T02:46:54.838Z,5.00
2024-01-25T02:49:26.208Z,6.93
2024-01-25T02:51:56.473Z,11.35
2024-01-25T02:54:27.869Z,11.77
2024-01-25T02:56:58.001Z,9.80
2024-01-25T02:59:27.819Z,9.35
2024-01-25T03:01:58.362Z,7.80
2024-01-25T03:04:28.566Z,10.05
2024-01-25T03:06:58.840Z,9.60
2024-01-25T03:09:30.219Z,8.70
2024-01-25T03:12:00.497Z,4.40
2024-01-25T03:14:30.318Z,4.75
2024-01-25T03:17:00.470Z,6.05
2024-01-25T03:19:31.188Z,9.40
2024-01-25T03:24:34.653Z,11.90
2024-01-25T03:27:05.032Z,6.88
2024-01-25T03:29:34.799Z,7.78
2024-01-25T03:32:05.023Z,9.57
2024-01-25T03:34:34.878Z,6.57
2024-01-25T03:37:05.242Z,6.90
2024-01-25T03:39:36.538Z,4.93
2024-01-25T03:42:07.059Z,10.68
2024-01-25T03:44:36.907Z,11.10
2024-01-25T03:47:07.317Z,5.32
2024-01-25T03:49:37.278Z,7.45
2024-01-25T03:52:08.712Z,6.28
2024-01-25T03:57:10.182Z,6.25
2024-01-25T03:59:40.224Z,13.25
2024-01-25T04:02:11.083Z,10.07
2024-01-25T04:04:41.019Z,18.02
2024-01-25T04:07:11.262Z,11.00
2024-01-25T04:09:42.897Z,7.25
2024-01-25T04:12:13.132Z,7.63
2024-01-25T04:14:42.891Z,9.40
2024-01-25T04:17:13.066Z,4.50
2024-01-25T04:19:42.916Z,7.88
2024-01-25T04:22:13.333Z,9.40
2024-01-25T04:24:45.421Z,7.63
2024-01-25T04:27:15.712Z,11.18
2024-01-25T04:29:45.868Z,10.40
2024-01-25T04:32:16.091Z,11.10
2024-01-25T04:34:49.455Z,10.68
2024-01-25T04:37:19.862Z,9.77
2024-01-25T04:39:51.395Z,8.52
2024-01-25T04:42:21.765Z,2.53
2024-01-25T04:44:51.507Z,9.50
2024-01-25T04:47:22.066Z,7.75
2024-01-25T04:49:51.892Z,10.35
2024-01-25T04:52:22.314Z,12.20
2024-01-25T04:54:53.584Z,12.38
2024-01-25T04:57:23.770Z,5.93
2024-01-25T04:59:53.656Z,5.20
2024-01-25T05:02:23.924Z,11.88
2024-01-25T05:04:53.909Z,6.25
2024-01-25T05:07:29.804Z,5.47
2024-01-25T05:10:02.342Z,4.32
2024-01-25T05:12:32.697Z,8.32
2024-01-25T05:15:02.844Z,6.95
2024-01-25T05:17:33.098Z,4.88
2024-01-25T05:20:04.648Z,4.18
2024-01-25T05:22:41.501Z,10.27
2024-01-25T05:25:13.013Z,6.78
2024-01-25T05:27:43.695Z,6.82
2024-01-25T05:30:14.241Z,8.43
2024-01-25T05:32:44.668Z,6.10
2024-01-25T05:35:14.811Z,15.37
2024-01-25T05:37:46.866Z,4.57
2024-01-25T05:40:19.027Z,5.33
2024-01-25T05:42:49.535Z,6.03
2024-01-25T05:45:21.811Z,5.35
2024-01-25T05:47:52.083Z,6.53
2024-01-25T05:50:22.403Z,4.40
2024-01-25T05:52:52.636Z,2.50
2024-01-25T05:55:24.023Z,5.45
2024-01-25T05:57:54.313Z,4.28
2024-01-25T06:00:24.587Z,4.82
2024-01-25T06:02:54.841Z,5.80
2024-01-25T06:05:24.887Z,6.35
2024-01-25T06:07:55.532Z,8.07
2024-01-25T06:10:27.181Z,5.20
2024-01-25T06:12:57.534Z,8.48
2024-01-25T06:15:27.336Z,8.27
2024-01-25T06:17:57.540Z,5.57
2024-01-25T06:20:27.363Z,6.38
2024-01-25T06:22:57.651Z,9.90
2024-01-25T06:25:32.693Z,9.57
2024-01-25T06:28:03.174Z,7.00
2024-01-25T06:30:33.053Z,7.43
2024-01-25T06:33:03.873Z,3.92
2024-01-25T06:35:33.906Z,8.05
2024-01-25T06:38:04.250Z,10.10
2024-01-25T06:40:35.545Z,8.57
2024-01-25T06:43:05.942Z,7.32
2024-01-25T06:45:35.813Z,6.85
2024-01-25T06:48:06.378Z,6.35
2024-01-25T06:50:36.573Z,8.87
2024-01-25T06:53:07.529Z,8.23
2024-01-25T06:55:38.821Z,9.20
2024-01-25T06:58:09.015Z,5.70
2024-01-25T07:00:40.350Z,8.98
2024-01-25T07:03:11.416Z,7.80
2024-01-25T07:05:41.974Z,7.60
2024-01-25T07:08:14.848Z,8.50
2024-01-25T07:10:47.181Z,4.70
2024-01-25T07:13:17.688Z,7.07
2024-01-25T07:15:47.596Z,2.70
2024-01-25T07:18:18.211Z,9.27
2024-01-25T07:20:48.212Z,6.13
2024-01-25T07:23:18.503Z,4.80
2024-01-25T07:25:49.792Z,3.47
2024-01-25T07:28:22.476Z,14.48
2024-01-25T07:30:52.442Z,9.50
2024-01-25T07:33:22.856Z,4.30
2024-01-25T07:35:52.707Z,3.28
2024-01-25T07:38:22.926Z,3.33
2024-01-25T07:40:54.563Z,4.95
2024-01-25T07:43:25.002Z,2.15
2024-01-25T07:45:55.196Z,1.03
2024-01-25T07:48:25.584Z,1.52
2024-01-25T07:50:55.547Z,2.35
2024-01-25T07:53:25.825Z,2.80
2024-01-25T07:55:57.301Z,2.47
2024-01-25T07:58:27.633Z,0.60
2024-01-25T08:00:57.532Z,1.23
2024-01-25T08:03:27.866Z,2.28
2024-01-25T08:05:57.774Z,7.15
2024-01-25T08:08:28.018Z,1.02
2024-01-25T08:10:59.943Z,0.68
2024-01-25T08:13:32.361Z,0.40
2024-01-25T08:16:04.698Z,0.93
2024-01-25T08:18:35.081Z,1.88
2024-01-25T08:21:05.136Z,1.80
2024-01-25T08:23:35.378Z,1.25
2024-01-25T08:26:06.926Z,2.95
2024-01-25T08:28:37.202Z,0.93
2024-01-25T08:31:07.189Z,2.53
2024-01-25T08:33:37.551Z,0.77
2024-01-25T08:36:08.269Z,2.90
2024-01-25T08:38:38.588Z,1.92
2024-01-25T08:41:10.269Z,3.97
2024-01-25T08:43:41.894Z,8.00
2024-01-25T08:46:11.796Z,2.60
2024-01-25T08:48:43.172Z,2.13
2024-01-25T08:51:13.169Z,5.18
2024-01-25T08:53:43.332Z,3.70
2024-01-25T08:56:14.730Z,2.10
2024-01-25T08:58:45.075Z,4.50
2024-01-25T09:01:15.190Z,4.90
2024-01-25T09:03:45.577Z,3.13
2024-01-25T09:06:16.993Z,3.10
2024-01-25T09:08:47.358Z,3.03
2024-01-25T09:11:18.710Z,1.60
2024-01-25T09:13:49.259Z,3.28
2024-01-25T09:16:21.503Z,3.22
2024-01-25T09:18:52.032Z,4.25
2024-01-25T09:21:21.882Z,1.83
2024-01-25T09:23:52.016Z,3.03
2024-01-25T09:26:23.352Z,2.40
2024-01-25T09:28:53.600Z,6.32
2024-01-25T09:31:23.948Z,3.50
2024-01-25T09:33:54.730Z,5.70
2024-01-25T09:36:24.732Z,2.67
2024-01-25T09:38:54.890Z,3.72
2024-01-25T09:41:26.520Z,1.55
2024-01-25T09:43:56.747Z,1.27
2024-01-25T09:46:26.968Z,3.28
2024-01-25T09:48:57.606Z,5.60
2024-01-25T09:51:29.050Z,2.97
2024-01-25T09:54:00.305Z,13.18
2024-01-25T09:56:35.195Z,1.88
2024-01-25T09:59:06.238Z,1.95
2024-01-25T10:01:36.208Z,2.15
2024-01-25T10:04:10.404Z,2.65
2024-01-25T10:06:40.395Z,3.53
2024-01-25T10:09:11.757Z,1.35
2024-01-25T10:11:47.386Z,3.00
2024-01-25T10:14:21.397Z,1.98
2024-01-25T10:16:51.654Z,4.23
2024-01-25T10:19:24.022Z,1.33
2024-01-25T10:21:54.405Z,5.25
2024-01-25T10:24:25.320Z,1.05
2024-01-25T10:26:57.235Z,0.68
2024-01-25T10:29:29.251Z,1.95
2024-01-25T10:31:59.435Z,1.75
2024-01-25T10:34:32.071Z,3.88
2024-01-25T10:37:02.246Z,1.52
2024-01-25T10:39:33.225Z,1.55
2024-01-25T10:42:04.650Z,2.15
2024-01-25T10:44:35.408Z,1.65
2024-01-25T10:47:05.683Z,1.08
2024-01-25T10:49:36.523Z,2.90
2024-01-25T10:52:09.057Z,3.40
2024-01-25T10:54:39.310Z,1.02
2024-01-25T10:57:11.519Z,1.30
2024-01-25T10:59:41.803Z,1.30
2024-01-25T11:02:12.161Z,0.85
2024-01-25T11:04:42.855Z,1.88
2024-01-25T11:07:14.477Z,1.50
2024-01-25T11:09:44.963Z,1.67
2024-01-25T11:15:11.876Z,2.25
2024-01-25T11:20:44.494Z,1.60
2024-01-25T11:23:18.895Z,1.30
2024-01-25T11:25:50.417Z,2.75
2024-01-25T11:28:20.804Z,2.95
2024-01-25T11:30:53.401Z,4.10
2024-01-25T11:33:23.774Z,5.65
2024-01-25T11:35:57.980Z,2.65
2024-01-25T11:38:28.166Z,1.92
2024-01-25T11:41:00.823Z,1.67
2024-01-25T11:43:31.165Z,8.13
2024-01-25T11:46:02.638Z,1.38
2024-01-25T11:48:33.146Z,4.65
2024-01-25T11:51:03.468Z,1.95
2024-01-25T11:53:33.703Z,1.58
2024-01-25T11:56:04.024Z,1.25
2024-01-25T11:58:35.560Z,3.40
2024-01-25T12:01:10.672Z,3.35
2024-01-25T12:03:41.347Z,3.90
2024-01-25T12:06:11.710Z,3.35
2024-01-25T12:11:13.154Z,3.00
2024-01-25T12:13:45.117Z,2.22
2024-01-25T12:16:17.627Z,1.70
2024-01-25T12:18:48.301Z,2.97
2024-01-25T12:21:18.168Z,4.00
2024-01-25T12:23:48.511Z,2.97
2024-01-25T12:26:18.825Z,3.13
2024-01-25T12:28:51.258Z,3.88
2024-01-25T12:31:23.020Z,2.75
2024-01-25T12:33:53.407Z,3.90
2024-01-25T12:36:23.424Z,3.00
2024-01-25T12:38:53.680Z,5.38
2024-01-25T12:41:23.774Z,2.90
2024-01-25T12:43:54.531Z,3.28
2024-01-25T12:46:27.900Z,4.15
2024-01-25T12:49:00.023Z,2.20
2024-01-25T12:51:30.176Z,2.08
2024-01-25T12:54:00.571Z,1.50
2024-01-25T12:56:30.402Z,2.63
2024-01-25T12:59:00.616Z,1.40
2024-01-25T13:01:32.204Z,1.85
2024-01-25T13:04:02.616Z,4.55
2024-01-25T13:06:32.530Z,4.47
2024-01-25T13:09:02.835Z,4.28
2024-01-25T13:11:32.790Z,1.73
2024-01-25T13:14:02.952Z,3.13
2024-01-25T13:16:34.888Z,3.85
2024-01-25T13:19:05.323Z,4.55
2024-01-25T13:21:35.356Z,2.53
2024-01-25T13:24:05.849Z,1.75
2024-01-25T13:26:35.667Z,2.20
2024-01-25T13:29:06.010Z,2.17
2024-01-25T13:31:37.431Z,0.50
2024-01-25T13:34:07.827Z,2.80
2024-01-25T13:36:37.739Z,3.77
2024-01-25T13:39:08.503Z,3.38
2024-01-25T13:41:38.321Z,2.10
2024-01-25T13:44:08.482Z,1.67
2024-01-25T13:46:39.738Z,1.05
2024-01-25T13:49:10.316Z,1.15
2024-01-25T13:51:40.259Z,1.15
2024-01-25T13:54:10.439Z,4.40
2024-01-25T13:56:41.212Z,2.28
2024-01-25T13:59:11.349Z,3.55
2024-01-25T14:01:42.695Z,3.45
2024-01-25T14:04:13.958Z,4.22
2024-01-25T14:06:43.903Z,3.00
2024-01-25T14:09:14.216Z,3.97
2024-01-25T14:11:45.053Z,2.47
2024-01-25T14:14:15.440Z,4.45
2024-01-25T14:16:46.836Z,6.82
2024-01-25T14:19:18.820Z,3.70
2024-01-25T14:21:53.334Z,2.35
2024-01-25T14:24:30.179Z,2.40
2024-01-25T14:27:00.090Z,2.83
2024-01-25T14:29:33.887Z,3.45
2024-01-25T14:32:05.664Z,2.53
2024-01-25T14:34:36.449Z,3.63
2024-01-25T14:37:06.590Z,4.15
2024-01-25T14:39:41.127Z,2.33
2024-01-25T14:42:13.738Z,6.32
2024-01-25T14:44:46.623Z,4.50
2024-01-25T14:47:21.955Z,6.60
2024-01-25T14:49:53.464Z,5.55
2024-01-25T14:52:23.421Z,6.70
2024-01-25T14:54:53.663Z,3.22
2024-01-25T14:57:23.484Z,5.10
2024-01-25T14:59:53.651Z,5.43
2024-01-25T15:02:25.005Z,7.50
2024-01-25T15:04:55.258Z,7.05
2024-01-25T15:07:25.218Z,13.23
2024-01-25T15:09:56.928Z,9.10
2024-01-25T15:12:28.066Z,9.00
2024-01-25T15:14:58.310Z,8.93
2024-01-25T15:17:29.565Z,9.13
2024-01-25T15:19:59.883Z,8.40
2024-01-25T15:22:30.401Z,8.35
2024-01-25T15:25:00.726Z,10.52
2024-01-25T15:27:30.670Z,9.85
2024-01-25T15:30:00.993Z,5.32
2024-01-25T15:32:32.303Z,7.47
2024-01-25T15:35:02.868Z,5.03
2024-01-25T15:37:32.787Z,7.07
2024-01-25T15:40:09.728Z,14.30
2024-01-25T15:42:40.545Z,6.85
2024-01-25T15:45:11.378Z,3.58
2024-01-25T15:47:44.018Z,6.18
2024-01-25T15:50:14.593Z,8.18
2024-01-25T15:52:44.402Z,5.53
2024-01-25T15:55:14.614Z,5.60
2024-01-25T15:57:44.488Z,9.25
2024-01-25T16:00:16.408Z,9.18
2024-01-25T16:02:47.664Z,9.95
2024-01-25T16:05:18.117Z,5.57
2024-01-25T16:07:50.078Z,14.40
2024-01-25T16:10:21.770Z,5.10
2024-01-25T16:12:51.988Z,8.85
2024-01-25T16:15:22.461Z,8.20
2024-01-25T16:17:53.800Z,6.53
2024-01-25T16:20:26.922Z,6.50
2024-01-25T16:22:57.983Z,5.28
2024-01-25T16:25:28.469Z,3.45
2024-01-25T16:27:58.316Z,4.95
2024-01-25T16:30:28.562Z,10.38
2024-01-25T16:33:00.223Z,5.07
2024-01-25T16:35:30.588Z,7.35
2024-01-25T16:38:00.423Z,8.45
2024-01-25T16:40:30.567Z,7.60
2024-01-25T16:43:00.484Z,9.98
2024-01-25T16:45:30.774Z,8.30
2024-01-25T16:48:02.307Z,8.77
2024-01-25T16:50:32.530Z,6.90
2024-01-25T16:53:03.489Z,4.85
2024-01-25T16:55:33.824Z,8.45
2024-01-25T16:58:05.200Z,6.07
2024-01-25T17:00:35.713Z,5.68
2024-01-25T17:03:07.447Z,5.03
2024-01-25T17:05:37.706Z,6.80
2024-01-25T17:08:07.992Z,8.25
2024-01-25T17:10:38.184Z,8.38
2024-01-25T17:13:07.973Z,4.38
2024-01-25T17:15:38.227Z,5.07
2024-01-25T17:18:09.784Z,5.15
2024-01-25T17:20:40.302Z,8.48
2024-01-25T17:23:10.086Z,3.42
2024-01-25T17:25:40.305Z,8.35
2024-01-25T17:28:10.212Z,6.57
2024-01-25T17:30:40.402Z,6.75
2024-01-25T17:33:11.794Z,5.60
2024-01-25T17:35:43.829Z,3.42
2024-01-25T17:38:13.831Z,4.10
2024-01-25T17:40:45.109Z,4.60
2024-01-25T17:43:21.805Z,6.22
2024-01-25T17:45:55.373Z,3.33
2024-01-25T17:48:26.946Z,3.87
2024-01-25T17:50:57.182Z,8.90
2024-01-25T17:53:26.955Z,5.93
2024-01-25T17:55:57.145Z,7.27
2024-01-25T17:58:27.121Z,5.93
2024-01-25T18:00:57.450Z,7.07
2024-01-25T18:03:28.843Z,8.13
2024-01-25T18:05:59.100Z,9.93
2024-01-25T18:08:28.848Z,12.20
2024-01-25T18:11:00.293Z,4.77
2024-01-25T18:15:59.925Z,6.00
2024-01-25T18:18:31.398Z,6.47
2024-01-25T18:21:01.992Z,4.10
2024-01-25T18:23:34.117Z,7.47
2024-01-25T18:26:04.558Z,7.03
2024-01-25T18:28:34.308Z,4.03
2024-01-25T18:31:05.203Z,6.43
2024-01-25T18:33:37.571Z,7.57
2024-01-25T18:36:12.133Z,10.80
2024-01-25T18:38:42.306Z,7.28
2024-01-25T18:41:12.520Z,7.93
2024-01-25T18:43:42.892Z,6.78
2024-01-25T18:46:13.156Z,7.57
2024-01-25T18:48:44.618Z,6.70
2024-01-25T18:51:14.966Z,6.70
2024-01-25T18:53:45.441Z,5.45
2024-01-25T18:56:26.574Z,11.45
2024-01-25T18:58:58.379Z,7.90
2024-01-25T19:01:29.164Z,5.63
2024-01-25T19:04:01.297Z,4.82
2024-01-25T19:06:37.113Z,13.20
2024-01-25T19:09:07.969Z,8.00
2024-01-25T19:11:38.255Z,7.43
2024-01-25T19:14:08.007Z,3.95
2024-01-25T19:16:38.217Z,8.60
2024-01-25T19:19:09.695Z,7.03
2024-01-25T19:21:39.997Z,5.72
2024-01-25T19:24:11.317Z,7.07
2024-01-25T19:26:41.489Z,9.13
2024-01-25T19:29:12.047Z,9.75
2024-01-25T19:31:42.191Z,9.63
2024-01-25T19:34:13.611Z,9.65
2024-01-25T19:36:44.997Z,6.47
2024-01-25T19:39:16.465Z,7.28
2024-01-25T19:41:48.687Z,9.95
2024-01-25T19:44:18.418Z,8.75
2024-01-25T19:46:48.667Z,6.50
2024-01-25T19:49:20.156Z,4.75
2024-01-25T19:51:50.568Z,5.65
2024-01-25T19:54:20.344Z,5.22
2024-01-25T19:56:50.538Z,6.10
2024-01-25T19:59:21.469Z,6.22
2024-01-25T20:04:24.184Z,7.88
2024-01-25T20:06:55.066Z,6.95
2024-01-25T20:09:25.235Z,4.03
2024-01-25T20:11:55.519Z,9.40
2024-01-25T20:14:25.333Z,6.07
2024-01-25T20:16:55.524Z,4.20
2024-01-25T20:19:27.940Z,6.80
2024-01-25T20:21:58.347Z,6.25
2024-01-25T20:24:28.174Z,5.40
2024-01-25T20:26:58.431Z,6.07
2024-01-25T20:29:28.207Z,4.93
2024-01-25T20:31:58.521Z,7.07
2024-01-25T20:34:29.904Z,5.85
2024-01-25T20:37:00.180Z,4.25
2024-01-25T20:39:30.102Z,5.97
2024-01-25T20:42:00.304Z,6.70
2024-01-25T20:44:30.092Z,6.60
2024-01-25T20:47:00.279Z,4.60
2024-01-25T20:49:31.683Z,2.55
2024-01-25T20:52:02.002Z,5.63
2024-01-25T20:54:34.751Z,3.85
2024-01-25T20:57:05.158Z,4.25
2024-01-25T20:59:34.927Z,5.07
2024-01-25T21:02:05.800Z,7.33
2024-01-25T21:04:37.686Z,5.05
2024-01-25T21:07:08.577Z,5.03
2024-01-25T21:09:38.958Z,9.68
2024-01-25T21:12:10.509Z,2.60
2024-01-25T21:14:40.997Z,6.20
2024-01-25T21:17:11.213Z,3.30
2024-01-25T21:19:42.553Z,3.58
2024-01-25T21:22:12.845Z,4.38
2024-01-25T21:24:42.706Z,4.57
2024-01-25T21:27:12.973Z,3.05
2024-01-25T21:29:42.716Z,2.65
2024-01-25T21:32:13.041Z,4.88
2024-01-25T21:34:44.482Z,3.70
2024-01-25T21:37:14.812Z,1.80
2024-01-25T21:39:44.598Z,3.85
2024-01-25T21:42:15.055Z,2.35
2024-01-25T21:44:48.742Z,1.65
2024-01-25T21:47:19.137Z,2.35
2024-01-25T21:49:51.793Z,4.65
2024-01-25T21:52:23.553Z,1.15
2024-01-25T21:54:53.614Z,1.00
2024-01-25T21:57:24.161Z,3.42
2024-01-25T22:00:00.002Z,1.05
2024-01-25T22:02:31.025Z,1.83
2024-01-25T22:05:02.706Z,1.25
2024-01-25T22:07:33.186Z,4.20
2024-01-25T22:10:03.301Z,5.05
2024-01-25T22:12:34.238Z,2.00
2024-01-25T22:15:04.511Z,3.15
2024-01-25T22:17:34.936Z,4.90
2024-01-25T22:20:07.591Z,2.80
2024-01-25T22:22:38.206Z,3.65
2024-01-25T22:25:09.097Z,4.28
2024-01-25T22:27:39.737Z,4.35
2024-01-25T22:30:10.734Z,2.25
2024-01-25T22:32:41.219Z,3.70
2024-01-25T22:35:13.074Z,5.07
2024-01-25T22:37:43.638Z,1.92
2024-01-25T22:40:15.111Z,4.88
2024-01-25T22:42:45.505Z,2.72
2024-01-25T22:45:17.952Z,3.53
2024-01-25T22:47:48.366Z,6.50
2024-01-25T22:50:19.934Z,4.93
2024-01-25T22:52:50.322Z,3.30
2024-01-25T22:55:20.844Z,2.78
2024-01-25T22:57:51.485Z,4.90
2024-01-25T23:00:25.126Z,5.70
2024-01-25T23:02:55.726Z,4.40
2024-01-25T23:05:27.903Z,4.38
2024-01-25T23:07:58.328Z,2.78
2024-01-25T23:10:28.401Z,4.10
2024-01-25T23:12:59.322Z,5.57
2024-01-25T23:15:29.593Z,5.30
2024-01-25T23:18:00.204Z,2.80
2024-01-25T23:20:32.151Z,2.83
2024-01-25T23:23:02.853Z,1.60
2024-01-25T23:25:33.123Z,2.47
2024-01-25T23:28:03.612Z,5.22
2024-01-25T23:30:33.641Z,2.17
2024-01-25T23:33:04.044Z,2.28
2024-01-25T23:35:35.841Z,2.72
2024-01-25T23:38:06.786Z,4.15
2024-01-25T23:40:39.209Z,1.85
2024-01-25T23:43:09.723Z,4.63
2024-01-25T23:45:39.787Z,1.25
2024-01-25T23:48:11.223Z,1.33
2024-01-25T23:50:42.842Z,2.13
2024-01-25T23:53:13.357Z,1.77
2024-01-25T23:55:43.676Z,2.50
2024-01-25T23:58:14.227Z,6.05
